createdAt,value
2023-04-15T00:00:40.472Z,8.635
2023-04-15T00:01:40.660Z,8.645
2023-04-15T00:02:38.765Z,8.625
2023-04-15T00:03:39.119Z,8.625
2023-04-15T00:04:38.201Z,8.625
2023-04-15T00:05:38.559Z,8.625
2023-04-15T00:06:38.382Z,8.614
2023-04-15T00:07:37.761Z,8.614
2023-04-15T00:08:38.567Z,8.614
2023-04-15T00:09:38.187Z,8.625
2023-04-15T00:10:38.421Z,8.625
2023-04-15T00:11:38.298Z,8.583
2023-04-15T00:12:37.976Z,8.562
2023-04-15T00:13:38.041Z,8.562
2023-04-15T00:14:38.249Z,8.562
2023-04-15T00:15:38.054Z,8.562
2023-04-15T00:16:38.260Z,8.562
2023-04-15T00:17:37.980Z,8.562
2023-04-15T00:18:38.459Z,8.562
2023-04-15T00:19:37.959Z,8.562
2023-04-15T00:20:38.914Z,8.562
2023-04-15T00:21:38.776Z,8.562
2023-04-15T00:22:38.229Z,8.562
2023-04-15T00:23:37.784Z,8.562
2023-04-15T00:24:38.768Z,8.562
2023-04-15T00:25:38.649Z,8.562
2023-04-15T00:26:37.971Z,8.562
2023-04-15T00:27:37.629Z,8.562
2023-04-15T00:28:38.051Z,8.562
2023-04-15T00:29:37.398Z,8.551
2023-04-15T00:30:38.332Z,8.5
2023-04-15T00:31:38.436Z,8.5
2023-04-15T00:32:38.092Z,8.5
2023-04-15T00:33:37.800Z,8.5
2023-04-15T00:34:38.302Z,8.5
2023-04-15T00:35:38.473Z,8.5
2023-04-15T00:36:38.094Z,8.5
2023-04-15T00:37:37.910Z,8.5
2023-04-15T00:38:38.593Z,8.5
2023-04-15T00:39:38.267Z,8.5
2023-04-15T00:40:37.851Z,8.468
2023-04-15T00:41:38.310Z,8.468
2023-04-15T00:42:37.795Z,8.447
2023-04-15T00:43:38.192Z,8.437
2023-04-15T00:44:38.054Z,8.437
2023-04-15T00:45:37.888Z,8.437
2023-04-15T00:46:38.646Z,8.437
2023-04-15T00:47:38.239Z,8.437
2023-04-15T00:48:38.112Z,8.437
2023-04-15T00:49:37.746Z,8.437
2023-04-15T00:50:38.215Z,8.437
2023-04-15T00:51:37.843Z,8.437
2023-04-15T00:52:37.914Z,8.426
2023-04-15T00:53:38.479Z,8.375
2023-04-15T00:54:37.974Z,8.416
2023-04-15T00:55:38.833Z,8.426
2023-04-15T00:56:38.174Z,8.395
2023-04-15T00:57:37.734Z,8.375
2023-04-15T00:58:38.134Z,8.375
2023-04-15T00:59:37.802Z,8.375
2023-04-15T01:00:39.592Z,8.375
2023-04-15T01:01:37.984Z,8.375
2023-04-15T01:02:38.040Z,8.375
2023-04-15T01:03:38.134Z,8.375
2023-04-15T01:04:38.374Z,8.364
2023-04-15T01:05:38.569Z,8.322
2023-04-15T01:06:38.496Z,8.322
2023-04-15T01:07:38.417Z,8.312
2023-04-15T01:08:37.889Z,8.312
2023-04-15T01:09:38.466Z,8.312
2023-04-15T01:10:38.207Z,8.312
2023-04-15T01:11:38.237Z,8.312
2023-04-15T01:12:38.109Z,8.312
2023-04-15T01:13:37.530Z,8.312
2023-04-15T01:14:38.173Z,8.312
2023-04-15T01:15:38.456Z,8.312
2023-04-15T01:16:38.078Z,8.312
2023-04-15T01:17:37.944Z,8.312
2023-04-15T01:18:37.806Z,8.301
2023-04-15T01:19:38.877Z,8.281
2023-04-15T01:20:38.853Z,8.260
2023-04-15T01:21:38.557Z,8.25
2023-04-15T01:22:38.221Z,8.25
2023-04-15T01:23:37.766Z,8.25
2023-04-15T01:24:38.367Z,8.25
2023-04-15T01:25:38.436Z,8.25
2023-04-15T01:26:38.346Z,8.25
2023-04-15T01:27:37.795Z,8.25
2023-04-15T01:28:38.578Z,8.25
2023-04-15T01:29:38.194Z,8.25
2023-04-15T01:30:38.333Z,8.213
2023-04-15T01:31:38.178Z,8.212
2023-04-15T01:32:38.237Z,8.187
2023-04-15T01:33:38.181Z,8.197
2023-04-15T01:34:38.172Z,8.218
2023-04-15T01:35:38.158Z,8.218
2023-04-15T01:36:38.092Z,8.239
2023-04-15T01:37:38.025Z,8.229
2023-04-15T01:38:37.584Z,8.25
2023-04-15T01:39:38.127Z,8.25
2023-04-15T01:40:38.021Z,8.25
2023-04-15T01:41:37.766Z,8.25
2023-04-15T01:42:38.353Z,8.25
2023-04-15T01:43:52.503Z,8.25
2023-04-15T01:44:38.145Z,8.25
2023-04-15T01:45:37.671Z,8.25
2023-04-15T01:46:38.310Z,8.25
2023-04-15T01:47:38.058Z,8.25
2023-04-15T01:48:38.134Z,8.25
2023-04-15T01:49:37.916Z,8.25
2023-04-15T01:50:39.077Z,8.25
2023-04-15T01:51:38.275Z,8.25
2023-04-15T01:52:38.040Z,8.25
2023-04-15T01:53:37.501Z,8.25
2023-04-15T01:54:38.053Z,8.25
2023-04-15T01:55:37.898Z,8.25
2023-04-15T01:56:38.237Z,8.25
2023-04-15T01:57:37.478Z,8.25
2023-04-15T01:58:38.187Z,8.25
2023-04-15T01:59:45.624Z,8.25
2023-04-15T02:00:39.649Z,8.25
2023-04-15T02:02:00.289Z,8.25
2023-04-15T02:02:37.947Z,8.25
2023-04-15T02:03:37.929Z,8.25
2023-04-15T02:04:38.481Z,8.260
2023-04-15T02:05:38.413Z,8.25
2023-04-15T02:06:38.352Z,8.25
2023-04-15T02:07:37.820Z,8.25
2023-04-15T02:08:38.835Z,8.25
2023-04-15T02:09:38.620Z,8.25
2023-04-15T02:10:38.051Z,8.25
2023-04-15T02:11:37.443Z,8.25
2023-04-15T02:12:37.958Z,8.25
2023-04-15T02:13:38.692Z,8.25
2023-04-15T02:14:38.483Z,8.25
2023-04-15T02:15:38.038Z,8.260
2023-04-15T02:16:37.985Z,8.260
2023-04-15T02:17:37.949Z,8.25
2023-04-15T02:18:37.486Z,8.25
2023-04-15T02:19:37.742Z,8.25
2023-04-15T02:20:38.771Z,8.25
2023-04-15T02:21:38.651Z,8.25
2023-04-15T02:22:38.408Z,8.25
2023-04-15T02:23:38.061Z,8.25
2023-04-15T02:24:37.642Z,8.25
2023-04-15T02:25:38.565Z,8.25
2023-04-15T02:26:38.143Z,8.25
2023-04-15T02:27:37.650Z,8.25
2023-04-15T02:28:38.463Z,8.25
2023-04-15T02:29:38.024Z,8.239
2023-04-15T02:30:38.933Z,8.25
2023-04-15T02:31:39.096Z,8.197
2023-04-15T02:32:38.285Z,8.187
2023-04-15T02:33:38.269Z,8.187
2023-04-15T02:34:38.095Z,8.187
2023-04-15T02:36:09.510Z,8.187
2023-04-15T02:36:41.229Z,8.187
2023-04-15T02:37:37.815Z,8.187
2023-04-15T02:38:38.554Z,8.187
2023-04-15T02:39:38.280Z,8.187
2023-04-15T02:40:37.925Z,8.187
2023-04-15T02:41:38.495Z,8.187
2023-04-15T02:42:38.757Z,8.176
2023-04-15T02:43:38.690Z,8.156
2023-04-15T02:44:38.250Z,8.135
2023-04-15T02:45:37.917Z,8.156
2023-04-15T02:46:38.927Z,8.125
2023-04-15T02:47:38.949Z,8.125
2023-04-15T02:48:38.530Z,8.125
2023-04-15T02:49:38.326Z,8.125
2023-04-15T02:50:38.256Z,8.125
2023-04-15T02:51:38.323Z,8.125
2023-04-15T02:52:37.898Z,8.125
2023-04-15T02:53:38.675Z,8.125
2023-04-15T02:54:38.356Z,8.125
2023-04-15T02:55:38.276Z,8.125
2023-04-15T02:56:38.185Z,8.125
2023-04-15T02:57:38.582Z,8.093
2023-04-15T02:58:38.754Z,8.062
2023-04-15T02:59:38.558Z,8.074
2023-04-15T03:00:39.122Z,8.062
2023-04-15T03:01:38.137Z,8.062
2023-04-15T03:02:38.340Z,8.062
2023-04-15T03:03:38.510Z,8.062
2023-04-15T03:04:38.174Z,8.062
2023-04-15T03:05:37.677Z,8.062
2023-04-15T03:06:38.554Z,8.062
2023-04-15T03:07:37.760Z,8.062
2023-04-15T03:08:38.442Z,8.051
2023-04-15T03:09:38.210Z,8.062
2023-04-15T03:10:38.330Z,8.062
2023-04-15T03:11:37.687Z,8.010
2023-04-15T03:12:38.683Z,8
2023-04-15T03:13:38.508Z,8
2023-04-15T03:14:38.308Z,8
2023-04-15T03:15:38.302Z,8
2023-04-15T03:16:37.995Z,8
2023-04-15T03:17:37.791Z,8
2023-04-15T03:18:38.771Z,8
2023-04-15T03:19:38.578Z,8
2023-04-15T03:20:38.870Z,8
2023-04-15T03:21:38.481Z,8
2023-04-15T03:22:38.106Z,8
2023-04-15T03:23:37.984Z,8
2023-04-15T03:24:38.260Z,7.989
2023-04-15T03:25:38.559Z,8
2023-04-15T03:26:38.405Z,8
2023-04-15T03:27:38.253Z,7.936
2023-04-15T03:28:38.122Z,7.936
2023-04-15T03:29:37.619Z,7.936
2023-04-15T03:30:38.586Z,7.936
2023-04-15T03:31:38.340Z,7.936
2023-04-15T03:32:38.515Z,7.936
2023-04-15T03:33:38.416Z,6.599
2023-04-15T03:34:38.392Z,7.936
2023-04-15T03:35:38.491Z,7.936
2023-04-15T03:36:38.746Z,7.936
2023-04-15T03:37:38.430Z,7.936
2023-04-15T03:38:38.126Z,7.936
2023-04-15T03:39:38.101Z,7.936
2023-04-15T03:40:38.141Z,7.916
2023-04-15T03:41:37.385Z,7.936
2023-04-15T03:42:37.997Z,7.916
2023-04-15T03:43:37.781Z,7.885
2023-04-15T03:44:38.486Z,7.875
2023-04-15T03:45:38.808Z,7.875
2023-04-15T03:46:43.616Z,7.875
2023-04-15T03:48:43.267Z,7.875
2023-04-15T03:49:37.708Z,7.875
2023-04-15T03:50:38.264Z,7.875
2023-04-15T03:51:37.882Z,7.875
2023-04-15T03:52:38.348Z,7.875
2023-04-15T03:53:38.623Z,7.843
2023-04-15T03:54:39.158Z,7.833
2023-04-15T03:55:38.060Z,7.811
2023-04-15T03:56:38.117Z,7.811
2023-04-15T03:57:38.621Z,7.811
2023-04-15T03:58:38.993Z,7.811
2023-04-15T03:59:38.167Z,7.811
2023-04-15T04:00:38.830Z,7.811
2023-04-15T04:01:38.576Z,7.811
2023-04-15T04:02:39.082Z,7.811
2023-04-15T04:03:38.333Z,7.811
2023-04-15T04:04:38.633Z,7.811
2023-04-15T04:05:38.296Z,7.811
2023-04-15T04:06:37.882Z,7.811
2023-04-15T04:07:38.535Z,7.781
2023-04-15T04:08:38.541Z,7.801
2023-04-15T04:09:37.966Z,7.760
2023-04-15T04:10:38.820Z,7.760
2023-04-15T04:11:38.368Z,7.75
2023-04-15T04:12:37.988Z,7.75
2023-04-15T04:13:37.799Z,7.75
2023-04-15T04:14:38.432Z,7.75
2023-04-15T04:15:38.479Z,7.75
2023-04-15T04:16:38.915Z,7.75
2023-04-15T04:17:38.834Z,7.75
2023-04-15T04:18:38.607Z,7.75
2023-04-15T04:19:38.065Z,7.75
2023-04-15T04:20:38.098Z,7.75
2023-04-15T04:21:37.851Z,7.75
2023-04-15T04:22:38.490Z,7.75
2023-04-15T04:23:38.086Z,7.75
2023-04-15T04:25:00.459Z,7.75
2023-04-15T04:25:38.020Z,7.75
2023-04-15T04:26:37.794Z,7.729
2023-04-15T04:27:38.628Z,7.708
2023-04-15T04:28:38.640Z,7.697
2023-04-15T04:29:38.433Z,7.686
2023-04-15T04:30:38.734Z,7.686
2023-04-15T04:31:38.576Z,7.686
2023-04-15T04:32:46.475Z,7.686
2023-04-15T04:33:38.546Z,7.686
2023-04-15T04:34:38.456Z,7.686
2023-04-15T04:35:38.684Z,7.686
2023-04-15T04:36:38.465Z,7.686
2023-04-15T04:37:38.516Z,7.686
2023-04-15T04:38:39.071Z,7.686
2023-04-15T04:39:37.522Z,7.686
2023-04-15T04:40:38.367Z,7.686
2023-04-15T04:41:38.311Z,7.686
2023-04-15T04:42:39.824Z,7.686
2023-04-15T04:43:37.855Z,7.686
2023-04-15T04:44:38.753Z,7.686
2023-04-15T04:45:38.969Z,7.686
2023-04-15T04:46:39.147Z,7.686
2023-04-15T04:47:38.665Z,7.686
2023-04-15T04:48:57.550Z,7.686
2023-04-15T04:49:38.758Z,7.686
2023-04-15T04:50:38.917Z,7.686
2023-04-15T04:51:39.041Z,7.686
2023-04-15T04:52:37.843Z,7.686
2023-04-15T04:53:38.879Z,7.686
2023-04-15T04:54:38.981Z,7.686
2023-04-15T04:55:38.612Z,7.686
2023-04-15T04:56:57.808Z,7.686
2023-04-15T04:57:38.837Z,7.686
2023-04-15T04:58:38.490Z,7.686
2023-04-15T04:59:38.552Z,7.686
2023-04-15T05:00:39.839Z,7.686
2023-04-15T05:01:39.122Z,7.686
2023-04-15T05:02:38.507Z,7.686
2023-04-15T05:03:38.876Z,7.686
2023-04-15T05:04:38.718Z,7.686
2023-04-15T05:05:38.889Z,7.686
2023-04-15T05:06:38.781Z,7.686
2023-04-15T05:07:38.932Z,7.686
2023-04-15T05:08:40.424Z,7.686
2023-04-15T05:09:38.298Z,7.686
2023-04-15T05:10:38.344Z,7.686
2023-04-15T05:11:38.205Z,7.686
2023-04-15T05:12:38.166Z,7.697
2023-04-15T05:13:38.176Z,7.686
2023-04-15T05:14:38.349Z,7.686
2023-04-15T05:15:38.857Z,7.697
2023-04-15T05:16:39.362Z,7.739
2023-04-15T05:17:38.914Z,7.739
2023-04-15T05:18:39.123Z,7.739
2023-04-15T05:19:38.095Z,7.75
2023-04-15T05:20:38.737Z,7.75
2023-04-15T05:21:39.590Z,7.75
2023-04-15T05:22:39.141Z,7.75
2023-04-15T05:23:38.391Z,7.75
2023-04-15T05:24:38.872Z,7.75
2023-04-15T05:25:38.975Z,7.75
2023-04-15T05:26:38.463Z,7.75
2023-04-15T05:27:38.870Z,7.75
2023-04-15T05:28:39.237Z,7.75
2023-04-15T05:29:39.117Z,7.75
2023-04-15T05:30:39.643Z,7.75
2023-04-15T05:31:38.653Z,7.75
2023-04-15T05:32:38.914Z,7.75
2023-04-15T05:33:38.997Z,7.75
2023-04-15T05:34:37.897Z,7.75
2023-04-15T05:35:39.240Z,7.75
2023-04-15T05:36:38.171Z,7.760
2023-04-15T05:37:37.835Z,7.760
2023-04-15T05:38:39.007Z,7.770
2023-04-15T05:39:38.436Z,7.781
2023-04-15T05:40:38.712Z,7.811
2023-04-15T05:41:38.880Z,7.811
2023-04-15T05:42:39.048Z,7.811
2023-04-15T05:43:37.995Z,6.5
2023-04-15T05:44:38.244Z,7.811
2023-04-15T05:45:38.924Z,7.811
2023-04-15T05:46:38.988Z,7.811
2023-04-15T05:47:38.269Z,7.811
2023-04-15T05:48:38.357Z,7.811
2023-04-15T05:49:38.353Z,7.811
2023-04-15T05:50:38.931Z,7.811
2023-04-15T05:51:39.274Z,7.811
2023-04-15T05:52:38.518Z,7.811
2023-04-15T05:53:38.772Z,7.833
2023-04-15T05:54:39.047Z,7.854
2023-04-15T05:55:38.382Z,7.833
2023-04-15T05:56:39.169Z,7.875
2023-04-15T05:57:39.335Z,7.843
2023-04-15T05:58:39.106Z,7.875
2023-04-15T05:59:38.199Z,7.875
2023-04-15T06:00:39.547Z,7.875
2023-04-15T06:01:38.842Z,7.875
2023-04-15T06:02:39.306Z,7.875
2023-04-15T06:03:38.763Z,7.875
2023-04-15T06:04:39.189Z,7.875
2023-04-15T06:05:38.380Z,7.875
2023-04-15T06:06:38.600Z,7.875
2023-04-15T06:07:43.581Z,7.899
2023-04-15T06:08:39.031Z,7.919
2023-04-15T06:09:43.207Z,7.936
2023-04-15T06:10:38.193Z,7.926
2023-04-15T06:11:37.937Z,7.936
2023-04-15T06:12:38.969Z,7.936
2023-04-15T06:13:39.217Z,7.936
2023-04-15T06:14:38.370Z,7.936
2023-04-15T06:15:43.736Z,6.599
2023-04-15T06:16:39.152Z,7.936
2023-04-15T06:17:38.336Z,7.936
2023-04-15T06:18:38.717Z,7.936
2023-04-15T06:19:46.822Z,7.949
2023-04-15T06:20:39.333Z,7.979
2023-04-15T06:21:38.518Z,7.968
2023-04-15T06:22:38.894Z,7.989
2023-04-15T06:23:41.084Z,8
2023-04-15T06:24:38.326Z,8
2023-04-15T06:25:38.717Z,8
2023-04-15T06:26:38.767Z,8
2023-04-15T06:27:38.642Z,8
2023-04-15T06:28:38.763Z,8
2023-04-15T06:29:39.040Z,8
2023-04-15T06:30:39.609Z,8
2023-04-15T06:31:39.211Z,8
2023-04-15T06:32:38.548Z,8
2023-04-15T06:33:52.735Z,8
2023-04-15T06:34:38.269Z,8
2023-04-15T06:35:38.527Z,8
2023-04-15T06:36:38.647Z,8
2023-04-15T06:37:38.697Z,8
2023-04-15T06:38:39.074Z,8
2023-04-15T06:39:38.177Z,8.010
2023-04-15T06:40:38.645Z,8.062
2023-04-15T06:41:38.410Z,8.051
2023-04-15T06:42:38.491Z,8.062
2023-04-15T06:43:57.735Z,8.020
2023-04-15T06:44:38.628Z,8.051
2023-04-15T06:45:39.268Z,8.031
2023-04-15T06:46:38.668Z,8
2023-04-15T06:47:38.768Z,8.010
2023-04-15T06:48:39.352Z,8.010
2023-04-15T06:49:57.413Z,8.051
2023-04-15T06:50:38.665Z,8.020
2023-04-15T06:51:41.751Z,8.051
2023-04-15T06:52:38.853Z,8.051
2023-04-15T06:53:39.329Z,8.051
2023-04-15T06:54:38.363Z,8.062
2023-04-15T06:55:39.057Z,8.062
2023-04-15T06:56:37.631Z,8.062
2023-04-15T06:57:38.411Z,8.062
2023-04-15T06:58:38.290Z,8.062
2023-04-15T06:59:38.174Z,8.062
2023-04-15T07:00:39.636Z,8.062
2023-04-15T07:01:47.386Z,8.062
2023-04-15T07:02:39.793Z,8.062
2023-04-15T07:03:39.879Z,8.062
2023-04-15T07:04:39.585Z,8.062
2023-04-15T07:05:39.169Z,8.062
2023-04-15T07:06:38.425Z,8.093
2023-04-15T07:07:39.499Z,8.114
2023-04-15T07:08:38.949Z,8.093
2023-04-15T07:09:39.097Z,8.125
2023-04-15T07:10:40.132Z,8.125
2023-04-15T07:11:37.871Z,8.114
2023-04-15T07:12:39.208Z,8.125
2023-04-15T07:13:38.173Z,8.125
2023-04-15T07:14:38.912Z,8.125
2023-04-15T07:15:58.088Z,8.125
2023-04-15T07:16:38.246Z,8.125
2023-04-15T07:17:38.548Z,8.125
2023-04-15T07:18:38.475Z,8.125
2023-04-15T07:19:38.663Z,8.125
2023-04-15T07:20:39.255Z,8.125
2023-04-15T07:21:39.967Z,8.125
2023-04-15T07:22:38.221Z,8.125
2023-04-15T07:24:09.825Z,8.125
2023-04-15T07:24:42.973Z,8.125
2023-04-15T07:25:38.563Z,8.156
2023-04-15T07:26:39.072Z,8.125
2023-04-15T07:27:38.261Z,8.125
2023-04-15T07:28:38.606Z,8.166
2023-04-15T07:29:38.551Z,8.187
2023-04-15T07:30:39.728Z,8.176
2023-04-15T07:31:39.356Z,8.176
2023-04-15T07:32:38.496Z,8.187
2023-04-15T07:33:38.783Z,8.187
2023-04-15T07:34:38.860Z,8.187
2023-04-15T07:35:38.782Z,8.187
2023-04-15T07:36:38.615Z,8.187
2023-04-15T07:37:38.793Z,8.187
2023-04-15T07:38:38.997Z,8.187
2023-04-15T07:39:38.222Z,8.187
2023-04-15T07:40:38.279Z,8.187
2023-04-15T07:41:38.673Z,8.187
2023-04-15T07:42:41.131Z,8.187
2023-04-15T07:43:38.616Z,8.187
2023-04-15T07:44:38.963Z,8.187
2023-04-15T07:45:39.498Z,8.187
2023-04-15T07:46:39.131Z,8.187
2023-04-15T07:47:38.450Z,8.187
2023-04-15T07:48:39.383Z,8.187
2023-04-15T07:49:38.227Z,8.187
2023-04-15T07:50:38.936Z,8.208
2023-04-15T07:51:38.847Z,8.218
2023-04-15T07:52:39.191Z,8.229
2023-04-15T07:53:38.023Z,8.25
2023-04-15T07:54:38.163Z,8.25
2023-04-15T07:55:38.447Z,8.25
2023-04-15T07:56:38.301Z,8.25
2023-04-15T07:57:38.710Z,8.25
2023-04-15T07:58:39.007Z,8.25
2023-04-15T07:59:38.798Z,8.25
2023-04-15T08:00:39.504Z,8.25
2023-04-15T08:01:38.650Z,8.25
2023-04-15T08:02:40.486Z,8.25
2023-04-15T08:03:39.600Z,8.25
2023-04-15T08:04:39.342Z,8.25
2023-04-15T08:05:38.512Z,8.25
2023-04-15T08:06:38.183Z,8.260
2023-04-15T08:07:38.522Z,8.25
2023-04-15T08:08:39.033Z,8.301
2023-04-15T08:09:38.556Z,8.301
2023-04-15T08:10:39.180Z,8.301
2023-04-15T08:11:38.183Z,6.900
2023-04-15T08:12:38.112Z,8.312
2023-04-15T08:13:38.333Z,8.312
2023-04-15T08:14:38.309Z,8.312
2023-04-15T08:15:38.969Z,8.312
2023-04-15T08:16:38.546Z,8.312
2023-04-15T08:17:38.585Z,8.312
2023-04-15T08:18:38.768Z,8.312
2023-04-15T08:19:38.535Z,8.312
2023-04-15T08:20:38.507Z,8.312
2023-04-15T08:21:38.303Z,8.312
2023-04-15T08:22:38.744Z,8.312
2023-04-15T08:23:39.171Z,8.312
2023-04-15T08:24:38.154Z,8.312
2023-04-15T08:25:38.265Z,8.322
2023-04-15T08:26:38.420Z,8.312
2023-04-15T08:27:38.708Z,8.312
2023-04-15T08:28:39.273Z,8.343
2023-04-15T08:29:38.633Z,8.375
2023-04-15T08:30:39.771Z,8.333
2023-04-15T08:31:39.016Z,8.354
2023-04-15T08:32:38.867Z,8.354
2023-04-15T08:33:39.543Z,8.375
2023-04-15T08:34:43.231Z,8.375
2023-04-15T08:35:38.466Z,8.375
2023-04-15T08:36:38.719Z,8.375
2023-04-15T08:37:39.245Z,8.375
2023-04-15T08:38:38.572Z,8.375
2023-04-15T08:39:39.139Z,8.375
2023-04-15T08:40:38.964Z,8.375
2023-04-15T08:41:39.101Z,8.375
2023-04-15T08:42:38.196Z,8.375
2023-04-15T08:43:38.450Z,8.375
2023-04-15T08:44:38.104Z,8.375
2023-04-15T08:45:39.005Z,8.375
2023-04-15T08:46:38.128Z,8.375
2023-04-15T08:47:39.031Z,8.375
2023-04-15T08:48:52.538Z,8.375
2023-04-15T08:49:38.841Z,8.406
2023-04-15T08:50:52.735Z,8.406
2023-04-15T08:51:39.887Z,8.406
2023-04-15T08:52:38.926Z,8.426
2023-04-15T08:53:39.301Z,8.437
2023-04-15T08:54:38.196Z,8.437
2023-04-15T08:55:39.042Z,8.437
2023-04-15T08:56:38.408Z,8.437
2023-04-15T08:57:38.387Z,8.437
2023-04-15T08:58:39.032Z,8.437
2023-04-15T08:59:38.412Z,8.437
2023-04-15T09:00:53.746Z,8.437
2023-04-15T09:01:39.497Z,8.437
2023-04-15T09:02:39.285Z,8.437
2023-04-15T09:03:38.516Z,8.437
2023-04-15T09:04:57.676Z,8.437
2023-04-15T09:05:38.787Z,8.437
2023-04-15T09:06:39.239Z,8.437
2023-04-15T09:07:38.393Z,8.437
2023-04-15T09:08:38.280Z,8.437
2023-04-15T09:09:38.544Z,8.449
2023-04-15T09:10:38.958Z,8.463
2023-04-15T09:11:39.159Z,8.458
2023-04-15T09:12:38.139Z,8.458
2023-04-15T09:13:38.282Z,8.487
2023-04-15T09:14:38.305Z,8.491
2023-04-15T09:15:38.852Z,8.5
2023-04-15T09:16:39.456Z,8.5
2023-04-15T09:17:38.802Z,8.5
2023-04-15T09:18:39.113Z,8.5
2023-04-15T09:19:38.203Z,8.5
2023-04-15T09:20:38.993Z,8.5
2023-04-15T09:21:38.355Z,8.5
2023-04-15T09:22:38.211Z,8.5
2023-04-15T09:23:38.229Z,8.5
2023-04-15T09:24:38.600Z,8.5
2023-04-15T09:25:38.652Z,8.5
2023-04-15T09:26:38.407Z,8.5
2023-04-15T09:27:38.634Z,8.5
2023-04-15T09:28:38.766Z,8.5
2023-04-15T09:29:38.766Z,8.5
2023-04-15T09:30:39.226Z,8.5
2023-04-15T09:31:38.481Z,8.5
2023-04-15T09:32:38.705Z,8.5
2023-04-15T09:33:39.089Z,8.5
2023-04-15T09:34:38.367Z,8.510
2023-04-15T09:35:38.424Z,8.5
2023-04-15T09:36:39.092Z,8.541
2023-04-15T09:37:47.040Z,8.531
2023-04-15T09:38:38.384Z,8.562
2023-04-15T09:39:38.927Z,8.541
2023-04-15T09:40:38.828Z,8.562
2023-04-15T09:41:38.850Z,8.562
2023-04-15T09:42:38.924Z,8.562
2023-04-15T09:43:38.750Z,8.562
2023-04-15T09:44:39.157Z,8.562
2023-04-15T09:45:41.892Z,8.562
2023-04-15T09:46:38.960Z,8.562
2023-04-15T09:47:38.906Z,8.562
2023-04-15T09:48:38.462Z,8.562
2023-04-15T09:49:38.566Z,8.562
2023-04-15T09:50:39.125Z,8.562
2023-04-15T09:51:38.118Z,8.562
2023-04-15T09:52:38.043Z,8.562
2023-04-15T09:53:38.615Z,8.572
2023-04-15T09:54:38.833Z,8.583
2023-04-15T09:55:38.814Z,8.614
2023-04-15T09:56:38.717Z,8.625
2023-04-15T09:57:38.822Z,8.625
2023-04-15T09:58:38.931Z,8.625
2023-04-15T09:59:39.194Z,8.625
2023-04-15T10:00:39.963Z,8.625
2023-04-15T10:01:39.120Z,8.625
2023-04-15T10:02:38.720Z,8.625
2023-04-15T10:03:39.712Z,8.625
2023-04-15T10:04:39.226Z,8.625
2023-04-15T10:05:38.762Z,8.625
2023-04-15T10:06:39.173Z,8.625
2023-04-15T10:07:38.785Z,8.625
2023-04-15T10:08:39.208Z,8.625
2023-04-15T10:09:38.301Z,8.656
2023-04-15T10:10:39.522Z,8.687
2023-04-15T10:11:38.570Z,8.687
2023-04-15T10:12:38.999Z,8.687
2023-04-15T10:13:38.477Z,8.687
2023-04-15T10:14:39.149Z,8.687
2023-04-15T10:15:38.821Z,8.687
2023-04-15T10:16:39.607Z,8.687
2023-04-15T10:17:38.886Z,8.687
2023-04-15T10:18:39.002Z,8.687
2023-04-15T10:19:38.154Z,7.199
2023-04-15T10:20:38.897Z,8.687
2023-04-15T10:21:38.741Z,8.687
2023-04-15T10:22:38.552Z,8.687
2023-04-15T10:23:39.187Z,8.687
2023-04-15T10:24:38.357Z,8.687
2023-04-15T10:25:38.740Z,8.687
2023-04-15T10:26:39.118Z,8.687
2023-04-15T10:27:38.376Z,8.687
2023-04-15T10:28:38.604Z,8.687
2023-04-15T10:29:38.949Z,8.687
2023-04-15T10:30:39.374Z,8.718
2023-04-15T10:31:38.712Z,8.729
2023-04-15T10:32:38.891Z,8.729
2023-04-15T10:33:38.961Z,7.199
2023-04-15T10:34:39.115Z,8.75
2023-04-15T10:35:38.424Z,8.75
2023-04-15T10:36:38.564Z,8.75
2023-04-15T10:37:38.517Z,8.75
2023-04-15T10:38:38.512Z,8.75
2023-04-15T10:39:38.468Z,8.75
2023-04-15T10:40:38.835Z,8.75
2023-04-15T10:41:38.803Z,8.75
2023-04-15T10:42:39.014Z,8.75
2023-04-15T10:43:38.405Z,8.75
2023-04-15T10:44:38.565Z,8.75
2023-04-15T10:45:38.767Z,8.75
2023-04-15T10:46:39.464Z,8.75
2023-04-15T10:47:38.765Z,8.75
2023-04-15T10:48:38.967Z,8.75
2023-04-15T10:49:38.921Z,8.75
2023-04-15T10:50:39.165Z,8.75
2023-04-15T10:51:38.622Z,8.75
2023-04-15T10:52:38.609Z,8.75
2023-04-15T10:53:38.410Z,8.75
2023-04-15T10:54:38.278Z,8.75
2023-04-15T10:55:38.980Z,8.801
2023-04-15T10:56:38.565Z,8.812
2023-04-15T10:57:43.827Z,8.812
2023-04-15T10:58:38.699Z,8.812
2023-04-15T10:59:38.934Z,8.812
2023-04-15T11:00:40.595Z,8.812
2023-04-15T11:01:38.889Z,8.812
2023-04-15T11:02:39.539Z,8.812
2023-04-15T11:03:39.085Z,8.812
2023-04-15T11:04:40.953Z,8.812
2023-04-15T11:05:39.424Z,8.812
2023-04-15T11:06:38.349Z,8.812
2023-04-15T11:07:38.566Z,8.812
2023-04-15T11:08:38.587Z,8.812
2023-04-15T11:09:38.654Z,7.300
2023-04-15T11:10:39.131Z,8.812
2023-04-15T11:11:38.600Z,8.812
2023-04-15T11:12:38.776Z,8.812
2023-04-15T11:13:39.110Z,8.843
2023-04-15T11:14:39.303Z,8.833
2023-04-15T11:15:38.972Z,8.822
2023-04-15T11:16:38.227Z,8.864
2023-04-15T11:17:38.616Z,8.864
2023-04-15T11:18:39.214Z,8.875
2023-04-15T11:19:39.281Z,8.864
2023-04-15T11:20:38.755Z,8.875
2023-04-15T11:21:38.678Z,8.875
2023-04-15T11:22:38.768Z,8.875
2023-04-15T11:23:38.630Z,8.875
2023-04-15T11:24:39.360Z,8.875
2023-04-15T11:25:38.298Z,8.875
2023-04-15T11:26:38.486Z,8.875
2023-04-15T11:27:38.511Z,8.875
2023-04-15T11:28:39.225Z,8.875
2023-04-15T11:29:38.451Z,8.875
2023-04-15T11:30:38.810Z,8.875
2023-04-15T11:31:38.801Z,8.875
2023-04-15T11:32:38.968Z,8.875
2023-04-15T11:34:06.351Z,8.875
2023-04-15T11:34:41.070Z,8.875
2023-04-15T11:35:38.926Z,8.875
2023-04-15T11:36:38.875Z,8.895
2023-04-15T11:37:38.965Z,8.875
2023-04-15T11:38:39.350Z,8.937
2023-04-15T11:39:38.906Z,8.937
2023-04-15T11:40:38.936Z,8.937
2023-04-15T11:41:39.622Z,8.937
2023-04-15T11:42:49.079Z,8.937
2023-04-15T11:43:39.114Z,8.937
2023-04-15T11:44:38.951Z,8.937
2023-04-15T11:45:39.983Z,8.937
2023-04-15T11:46:39.234Z,8.937
2023-04-15T11:47:38.375Z,8.947
2023-04-15T11:48:38.292Z,8.989
2023-04-15T11:49:38.522Z,8.989
2023-04-15T11:50:39.173Z,9
2023-04-15T11:51:38.464Z,9
2023-04-15T11:52:38.793Z,9
2023-04-15T11:53:38.985Z,9
2023-04-15T11:54:38.983Z,9
2023-04-15T11:55:38.513Z,9
2023-04-15T11:56:38.432Z,9
2023-04-15T11:57:38.732Z,9
2023-04-15T11:58:39.114Z,9
2023-04-15T11:59:47.732Z,9
2023-04-15T12:00:39.706Z,9.020
2023-04-15T12:01:38.877Z,9.051
2023-04-15T12:02:38.988Z,9.031
2023-04-15T12:03:39.367Z,9.041
2023-04-15T12:04:41.092Z,9.062
2023-04-15T12:05:39.294Z,9.062
2023-04-15T12:06:38.976Z,9.062
2023-04-15T12:07:38.297Z,9.062
2023-04-15T12:08:38.175Z,9.062
2023-04-15T12:09:38.853Z,9.062
2023-04-15T12:10:39.028Z,9.062
2023-04-15T12:11:38.530Z,9.062
2023-04-15T12:12:38.638Z,9.062
2023-04-15T12:13:38.579Z,9.062
2023-04-15T12:14:38.761Z,9.062
2023-04-15T12:15:38.836Z,9.062
2023-04-15T12:16:48.823Z,9.062
2023-04-15T12:17:51.520Z,9.062
2023-04-15T12:18:38.869Z,9.062
2023-04-15T12:19:39.213Z,9.062
2023-04-15T12:20:38.882Z,9.062
2023-04-15T12:21:38.695Z,9.062
2023-04-15T12:22:38.412Z,9.062
2023-04-15T12:23:37.860Z,9.074
2023-04-15T12:24:38.766Z,9.072
2023-04-15T12:25:38.730Z,9.087
2023-04-15T12:26:37.998Z,9.072
2023-04-15T12:27:37.835Z,9.083
2023-04-15T12:28:38.754Z,9.125
2023-04-15T12:29:38.613Z,9.114
2023-04-15T12:30:38.806Z,9.125
2023-04-15T12:31:38.714Z,9.125
2023-04-15T12:32:38.455Z,9.125
2023-04-15T12:33:38.050Z,9.125
2023-04-15T12:34:37.814Z,9.125
2023-04-15T12:35:39.073Z,9.125
2023-04-15T12:36:38.474Z,9.125
2023-04-15T12:37:38.564Z,9.125
2023-04-15T12:38:38.794Z,9.125
2023-04-15T12:39:38.765Z,9.125
2023-04-15T12:40:38.842Z,9.125
2023-04-15T12:41:38.593Z,9.125
2023-04-15T12:42:39.039Z,9.125
2023-04-15T12:43:38.336Z,9.125
2023-04-15T12:44:38.547Z,9.125
2023-04-15T12:45:38.234Z,9.125
2023-04-15T12:46:38.556Z,9.125
2023-04-15T12:47:38.224Z,9.125
2023-04-15T12:48:38.080Z,9.125
2023-04-15T12:49:38.028Z,9.125
2023-04-15T12:50:38.059Z,9.125
2023-04-15T12:51:38.243Z,9.125
2023-04-15T12:52:38.566Z,9.125
2023-04-15T12:53:38.319Z,9.125
2023-04-15T12:54:38.315Z,9.145
2023-04-15T12:55:38.695Z,9.156
2023-04-15T12:56:38.604Z,9.187
2023-04-15T12:57:38.539Z,9.187
2023-04-15T12:58:38.656Z,9.187
2023-04-15T12:59:38.298Z,9.187
2023-04-15T13:00:39.333Z,9.187
2023-04-15T13:01:38.063Z,9.187
2023-04-15T13:02:38.542Z,9.187
2023-04-15T13:03:39.282Z,9.187
2023-04-15T13:04:39.002Z,9.187
2023-04-15T13:05:38.551Z,9.187